MOL Explorer — 3EKT8 — position and weather

sailwx.info

Track history (hours):
 
Tides and Currents Weather Stations Pressure Air Temp Water Temp Dewpoint Dewpoint Depression Visibility Wind Speed Wind Dir Waves Ship Positions

MOL Explorer

Last reported at 2015-May-23 16:32 UTC. Time now 2015-May-28 08:06 UTC.
Position N 35°20' E 140°55'.

Length 293 m; draft 12.1 m.

Type: Ship (hazmat cat A). MMSI: 372827000.

Date/timePositionNaut miles runAvg speedWind from/ knotsBaromVisibWave heightAir tempDewpointWater temp
2015-May-23 16:32N 35°20' E 140°55'2120.1
2015-May-23 15:28N 35°08' E 140°33'1718.9
2015-May-23 14:33N 34°59' E 140°15'1818.1
2015-May-23 13:33N 34°49' E 139°56'1514.7
2015-May-23 12:33N 34°57' E 139°41'1616.3
2015-May-23 11:33N 35°12' E 139°46'1312.6
2015-May-23 10:33N 35°25' E 139°43'1110.7
2015-May-23 09:33N 35°34' E 139°48'3 2.6
2015-May-23 08:31N 35°36' E 139°46'0 0.0
2015-May-23 07:25N 35°36' E 139°46'0 0.0
2015-May-23 06:31N 35°36' E 139°46'0 0.0
2015-May-23 05:31N 35°36' E 139°46'0 0.0
2015-May-23 04:31N 35°36' E 139°46'0 0.0
2015-May-23 03:31N 35°36' E 139°46'0 0.0
2015-May-23 02:28N 35°36' E 139°46'0 0.0
2015-May-23 01:28N 35°36' E 139°46'0 0.0
2015-May-23 00:31N 35°36' E 139°46'0 0.0
2015-May-22 23:31N 35°36' E 139°46'0 0.2
2015-May-22 22:33N 35°36' E 139°46'8 8.0
2015-May-22 21:33N 35°30' E 139°52'1313.4
2015-May-22 20:33N 35°18' E 139°45'1111.0
2015-May-22 19:33N 35°07' E 139°46'6 6.5
2015-May-22 18:33N 35°02' E 139°42'9 9.1
2015-May-22 17:33N 34°53' E 139°41'58 3.4
2015-May-22 00:25N 35°02' E 138°31'193 4.1
2015-May-20 01:09N 33°48' E 134°55'813.0
2015-May-20 00:33N 33°56' E 134°55'1312.8
2015-May-19 23:34N 34°09' E 134°56'1414.1
2015-May-19 22:33N 34°22' E 135°01'1918.9
2015-May-19 21:34N 34°36' E 135°16'3 2.9
2015-May-19 20:30N 34°39' E 135°15'0 0.0
2015-May-19 19:24N 34°39' E 135°15'0 0.0
2015-May-19 18:30N 34°39' E 135°15'0 0.0
2015-May-19 17:30N 34°39' E 135°15'0 0.0
2015-May-19 16:30N 34°39' E 135°15'0 0.0
2015-May-19 15:27N 34°39' E 135°15'0 0.0
2015-May-19 14:30N 34°39' E 135°15'0 0.0
2015-May-19 13:30N 34°39' E 135°15'0 0.0
2015-May-19 12:24N 34°39' E 135°15'0 0.0
2015-May-19 11:30N 34°39' E 135°15'0 0.0
2015-May-19 10:24N 34°39' E 135°15'0 0.0
2015-May-19 09:24N 34°39' E 135°15'0 0.0
2015-May-19 08:24N 34°39' E 135°15'0 0.0
2015-May-19 07:24N 34°39' E 135°15'0 0.0
2015-May-19 06:30N 34°39' E 135°15'0 0.0
2015-May-19 05:30N 34°39' E 135°15'0 0.0
2015-May-19 04:24N 34°39' E 135°15'0 0.0
2015-May-19 03:30N 34°39' E 135°15'0 0.0
2015-May-19 02:24N 34°39' E 135°15'0 0.0
2015-May-19 01:30N 34°39' E 135°15'0 0.0
2015-May-19 00:24N 34°39' E 135°15'0 0.0
2015-May-18 23:30N 34°39' E 135°15'0 0.0
2015-May-18 22:24N 34°39' E 135°15'0 0.0
2015-May-18 21:18N 34°39' E 135°15'0 0.0
2015-May-18 20:30N 34°39' E 135°15'0 0.0
2015-May-18 19:30N 34°39' E 135°15'0 0.0
2015-May-18 18:30N 34°39' E 135°15'0 0.0
2015-May-18 17:30N 34°39' E 135°15'0 0.0
2015-May-18 16:30N 34°39' E 135°15'0 0.0
2015-May-18 15:30N 34°39' E 135°15'0 0.0
2015-May-18 14:30N 34°39' E 135°15'0 0.0
2015-May-18 13:24N 34°39' E 135°15'0 0.0
2015-May-18 12:30N 34°39' E 135°15'0 0.0
2015-May-18 11:30N 34°39' E 135°15'0 0.0
2015-May-18 10:30N 34°39' E 135°15'0 0.0
2015-May-18 09:30N 34°39' E 135°15'0 0.0
2015-May-18 08:24N 34°39' E 135°15'0 0.0
2015-May-18 07:24N 34°39' E 135°15'0 0.0
2015-May-18 06:30N 34°39' E 135°15'0 0.0
2015-May-18 05:30N 34°39' E 135°15'0 0.0
2015-May-18 04:24N 34°39' E 135°15'0 0.0
2015-May-18 03:30N 34°39' E 135°15'0 0.0
2015-May-18 02:30N 34°39' E 135°15'0 0.0
2015-May-18 01:30N 34°39' E 135°15'1 1.5
2015-May-18 00:33N 34°38' E 135°16'5 3.7
2015-May-17 23:20N 34°37' E 135°11'0 0.0
2015-May-17 22:32N 34°37' E 135°11'0 0.0
2015-May-17 21:32N 34°37' E 135°11'0 0.1
2015-May-17 20:32N 34°37' E 135°11'0 0.1
2015-May-17 19:26N 34°37' E 135°11'0 0.1
2015-May-17 18:26N 34°37' E 135°11'0 0.0
2015-May-17 17:32N 34°37' E 135°11'0 0.0
2015-May-17 16:32N 34°37' E 135°11'0 0.2
2015-May-17 15:26N 34°37' E 135°11'0 0.1
2015-May-17 14:32N 34°37' E 135°11'0 0.0
2015-May-17 13:26N 34°37' E 135°11'0 0.1
2015-May-17 12:32N 34°37' E 135°11'0 0.0
2015-May-17 11:26N 34°37' E 135°11'0 0.0
2015-May-17 10:26N 34°37' E 135°11'0 0.1
2015-May-17 09:32N 34°37' E 135°11'0 0.1
2015-May-17 08:20N 34°37' E 135°11'0 0.0
2015-May-17 07:32N 34°37' E 135°11'0 0.0
2015-May-17 06:20N 34°37' E 135°11'0 0.0
2015-May-17 05:32N 34°37' E 135°11'0 0.2
2015-May-17 04:20N 34°37' E 135°11'0 0.1
2015-May-17 03:32N 34°37' E 135°11'0 0.1
2015-May-17 02:33N 34°37' E 135°11'1 1.0
2015-May-17 01:33N 34°36' E 135°11'1615.8
2015-May-17 00:33N 34°22' E 135°01'1413.8
2015-May-16 23:34N 34°09' E 134°60'9 9.2
2015-May-16 22:33N 33°59' E 134°59'1212.4
2015-May-16 21:33N 33°47' E 134°57'1211.7
2015-May-16 20:33N 33°36' E 134°53'1812.0
2015-May-16 19:05N 33°19' E 134°47'  
2015-May-14 10:32N 29°39' E 122°45'1313.4
2015-May-14 09:32N 29°35' E 122°30'6 2.7
2015-May-14 07:20N 29°39' E 122°25'0 0.1
2015-May-14 03:26N 29°39' E 122°25'0 0.1
2015-May-14 01:26N 29°39' E 122°25'0 0.1
2015-May-14 00:14N 29°39' E 122°25'  
Track history (hours):
 
Tides and Currents Weather Stations Pressure Air Temp Water Temp Dewpoint Dewpoint Depression Visibility Wind Speed Wind Dir Waves Ship Positions

MOL Explorer

Last reported at 2015-May-23 16:32 UTC. Time now 2015-May-28 08:06 UTC.
Position N 35°20' E 140°55'.

Length 293 m; draft 12.1 m.

Type: Ship (hazmat cat A). MMSI: 372827000.

Date/timePositionNaut miles runAvg speedWind from/ knotsBaromVisibWave heightAir tempDewpointWater temp
2015-May-23 16:32N 35°20' E 140°55'2120.1
2015-May-23 15:28N 35°08' E 140°33'1718.9
2015-May-23 14:33N 34°59' E 140°15'1818.1
2015-May-23 13:33N 34°49' E 139°56'1514.7
2015-May-23 12:33N 34°57' E 139°41'1616.3
2015-May-23 11:33N 35°12' E 139°46'1312.6
2015-May-23 10:33N 35°25' E 139°43'1110.7
2015-May-23 09:33N 35°34' E 139°48'3 2.6
2015-May-23 08:31N 35°36' E 139°46'0 0.0
2015-May-23 07:25N 35°36' E 139°46'0 0.0
2015-May-23 06:31N 35°36' E 139°46'0 0.0
2015-May-23 05:31N 35°36' E 139°46'0 0.0
2015-May-23 04:31N 35°36' E 139°46'0 0.0
2015-May-23 03:31N 35°36' E 139°46'0 0.0
2015-May-23 02:28N 35°36' E 139°46'0 0.0
2015-May-23 01:28N 35°36' E 139°46'0 0.0
2015-May-23 00:31N 35°36' E 139°46'0 0.0
2015-May-22 23:31N 35°36' E 139°46'0 0.2
2015-May-22 22:33N 35°36' E 139°46'8 8.0
2015-May-22 21:33N 35°30' E 139°52'1313.4
2015-May-22 20:33N 35°18' E 139°45'1111.0
2015-May-22 19:33N 35°07' E 139°46'6 6.5
2015-May-22 18:33N 35°02' E 139°42'9 9.1
2015-May-22 17:33N 34°53' E 139°41'58 3.4
2015-May-22 00:25N 35°02' E 138°31'193 4.1
2015-May-20 01:09N 33°48' E 134°55'813.0
2015-May-20 00:33N 33°56' E 134°55'1312.8
2015-May-19 23:34N 34°09' E 134°56'1414.1
2015-May-19 22:33N 34°22' E 135°01'1918.9
2015-May-19 21:34N 34°36' E 135°16'3 2.9
2015-May-19 20:30N 34°39' E 135°15'0 0.0
2015-May-19 19:24N 34°39' E 135°15'0 0.0
2015-May-19 18:30N 34°39' E 135°15'0 0.0
2015-May-19 17:30N 34°39' E 135°15'0 0.0
2015-May-19 16:30N 34°39' E 135°15'0 0.0
2015-May-19 15:27N 34°39' E 135°15'0 0.0
2015-May-19 14:30N 34°39' E 135°15'0 0.0
2015-May-19 13:30N 34°39' E 135°15'0 0.0
2015-May-19 12:24N 34°39' E 135°15'0 0.0
2015-May-19 11:30N 34°39' E 135°15'0 0.0
2015-May-19 10:24N 34°39' E 135°15'0 0.0
2015-May-19 09:24N 34°39' E 135°15'0 0.0
2015-May-19 08:24N 34°39' E 135°15'0 0.0
2015-May-19 07:24N 34°39' E 135°15'0 0.0
2015-May-19 06:30N 34°39' E 135°15'0 0.0
2015-May-19 05:30N 34°39' E 135°15'0 0.0
2015-May-19 04:24N 34°39' E 135°15'0 0.0
2015-May-19 03:30N 34°39' E 135°15'0 0.0
2015-May-19 02:24N 34°39' E 135°15'0 0.0
2015-May-19 01:30N 34°39' E 135°15'0 0.0
2015-May-19 00:24N 34°39' E 135°15'0 0.0
2015-May-18 23:30N 34°39' E 135°15'0 0.0
2015-May-18 22:24N 34°39' E 135°15'0 0.0
2015-May-18 21:18N 34°39' E 135°15'0 0.0
2015-May-18 20:30N 34°39' E 135°15'0 0.0
2015-May-18 19:30N 34°39' E 135°15'0 0.0
2015-May-18 18:30N 34°39' E 135°15'0 0.0
2015-May-18 17:30N 34°39' E 135°15'0 0.0
2015-May-18 16:30N 34°39' E 135°15'0 0.0
2015-May-18 15:30N 34°39' E 135°15'0 0.0
2015-May-18 14:30N 34°39' E 135°15'0 0.0
2015-May-18 13:24N 34°39' E 135°15'0 0.0
2015-May-18 12:30N 34°39' E 135°15'0 0.0
2015-May-18 11:30N 34°39' E 135°15'0 0.0
2015-May-18 10:30N 34°39' E 135°15'0 0.0
2015-May-18 09:30N 34°39' E 135°15'0 0.0
2015-May-18 08:24N 34°39' E 135°15'0 0.0
2015-May-18 07:24N 34°39' E 135°15'0 0.0
2015-May-18 06:30N 34°39' E 135°15'0 0.0
2015-May-18 05:30N 34°39' E 135°15'0 0.0
2015-May-18 04:24N 34°39' E 135°15'0 0.0
2015-May-18 03:30N 34°39' E 135°15'0 0.0
2015-May-18 02:30N 34°39' E 135°15'0 0.0
2015-May-18 01:30N 34°39' E 135°15'1 1.5
2015-May-18 00:33N 34°38' E 135°16'5 3.7
2015-May-17 23:20N 34°37' E 135°11'0 0.0
2015-May-17 22:32N 34°37' E 135°11'0 0.0
2015-May-17 21:32N 34°37' E 135°11'0 0.1
2015-May-17 20:32N 34°37' E 135°11'0 0.1
2015-May-17 19:26N 34°37' E 135°11'0 0.1
2015-May-17 18:26N 34°37' E 135°11'0 0.0
2015-May-17 17:32N 34°37' E 135°11'0 0.0
2015-May-17 16:32N 34°37' E 135°11'0 0.2
2015-May-17 15:26N 34°37' E 135°11'0 0.1
2015-May-17 14:32N 34°37' E 135°11'0 0.0
2015-May-17 13:26N 34°37' E 135°11'0 0.1
2015-May-17 12:32N 34°37' E 135°11'0 0.0
2015-May-17 11:26N 34°37' E 135°11'0 0.0
2015-May-17 10:26N 34°37' E 135°11'0 0.1
2015-May-17 09:32N 34°37' E 135°11'0 0.1
2015-May-17 08:20N 34°37' E 135°11'0 0.0
2015-May-17 07:32N 34°37' E 135°11'0 0.0
2015-May-17 06:20N 34°37' E 135°11'0 0.0
2015-May-17 05:32N 34°37' E 135°11'0 0.2
2015-May-17 04:20N 34°37' E 135°11'0 0.1
2015-May-17 03:32N 34°37' E 135°11'0 0.1
2015-May-17 02:33N 34°37' E 135°11'1 1.0
2015-May-17 01:33N 34°36' E 135°11'1615.8
2015-May-17 00:33N 34°22' E 135°01'1413.8
2015-May-16 23:34N 34°09' E 134°60'9 9.2
2015-May-16 22:33N 33°59' E 134°59'1212.4
2015-May-16 21:33N 33°47' E 134°57'1211.7
2015-May-16 20:33N 33°36' E 134°53'1812.0
2015-May-16 19:05N 33°19' E 134°47'  
2015-May-14 10:32N 29°39' E 122°45'1313.4
2015-May-14 09:32N 29°35' E 122°30'6 2.7
2015-May-14 07:20N 29°39' E 122°25'0 0.1
2015-May-14 03:26N 29°39' E 122°25'0 0.1
2015-May-14 01:26N 29°39' E 122°25'0 0.1
2015-May-14 00:14N 29°39' E 122°25'  

Dump ship's entire track history